Time;durP1;ratioP1;P1;durP2;ratioP2;P2;SDS_P1;SDS_P2;PMS_P1;PMS_P2;Temp;Humidity;BMP_temperature;BMP_pressure;BME280_temperature;BME280_humidity;BME280_pressure;Samples;Min_cycle;Max_cycle;Signal;HPM_P1;HPM_P2
2022/08/01 00:01:35;;;;;;;0.95;0.82;;;23.60;90.00;;;;;;5038427;28;45361;-67
2022/08/01 00:04:02;;;;;;;1.00;0.80;;;23.60;90.00;;;;;;5038041;28;47110;-68
2022/08/01 00:06:31;;;;;;;0.60;0.60;;;23.60;89.90;;;;;;5036953;28;45458;-68
2022/08/01 00:08:58;;;;;;;0.98;0.73;;;23.60;89.90;;;;;;5038600;28;45226;-67
2022/08/01 00:11:25;;;;;;;0.68;0.68;;;23.60;89.80;;;;;;5037347;28;45266;-68
2022/08/01 00:13:51;;;;;;;0.73;0.60;;;23.60;89.80;;;;;;5038114;28;47219;-67
2022/08/01 00:16:18;;;;;;;0.70;0.45;;;23.60;89.80;;;;;;5036122;27;45337;-68
2022/08/01 00:18:45;;;;;;;0.77;0.77;;;23.60;89.70;;;;;;5038415;28;45391;-68
2022/08/01 00:21:12;;;;;;;1.05;0.68;;;23.60;89.60;;;;;;5035434;28;45409;-67
2022/08/01 00:23:40;;;;;;;0.93;0.77;;;23.60;89.80;;;;;;5037857;27;46410;-68
2022/08/01 00:26:07;;;;;;;1.40;0.70;;;23.60;89.60;;;;;;5036954;28;45296;-68
2022/08/01 00:28:34;;;;;;;1.13;0.65;;;23.60;89.40;;;;;;5037565;28;45269;-67
2022/08/01 00:31:01;;;;;;;0.52;0.50;;;23.60;89.40;;;;;;5038075;28;45633;-69
2022/08/01 00:33:28;;;;;;;0.93;0.63;;;23.60;89.50;;;;;;5037302;28;47026;-67
2022/08/01 00:35:55;;;;;;;0.65;0.50;;;23.60;89.50;;;;;;5037766;28;45421;-67
2022/08/01 00:38:22;;;;;;;0.63;0.50;;;23.60;89.40;;;;;;5036740;27;45267;-68
2022/08/01 00:40:51;;;;;;;0.93;0.65;;;23.60;89.50;;;;;;5037850;27;45472;-67
2022/08/01 00:43:18;;;;;;;0.73;0.65;;;23.60;89.80;;;;;;5035432;28;47435;-68
2022/08/01 00:45:45;;;;;;;1.63;0.70;;;23.60;89.60;;;;;;5036875;28;45311;-68
2022/08/01 00:48:11;;;;;;;1.25;0.70;;;23.60;89.50;;;;;;5035864;28;45225;-68
2022/08/01 00:50:39;;;;;;;1.15;0.70;;;23.60;89.60;;;;;;5037470;28;45301;-67
2022/08/01 00:53:07;;;;;;;0.50;0.50;;;23.60;89.70;;;;;;5036840;28;46408;-67
2022/08/01 00:55:35;;;;;;;1.33;0.70;;;23.60;89.60;;;;;;5037561;28;45444;-67
2022/08/01 00:58:03;;;;;;;0.70;0.70;;;23.60;89.60;;;;;;5036584;28;45601;-67
2022/08/01 01:00:30;;;;;;;0.57;0.50;;;23.60;89.60;;;;;;5037486;28;45318;-67
2022/08/01 01:02:57;;;;;;;0.95;0.63;;;23.60;89.60;;;;;;5037070;28;48094;-67
2022/08/01 01:05:24;;;;;;;0.82;0.80;;;23.60;89.60;;;;;;5036605;28;45378;-68
2022/08/01 01:07:57;;;;;;;2.15;0.50;;;23.60;89.60;;;;;;5036385;28;45291;-67
2022/08/01 01:10:29;;;;;;;0.65;0.60;;;23.60;89.60;;;;;;5035885;28;45535;-68
2022/08/01 01:13:02;;;;;;;1.38;0.70;;;23.60;89.50;;;;;;5037190;28;47407;-67
2022/08/01 01:15:36;;;;;;;1.00;0.60;;;23.60;89.70;;;;;;5036626;28;45260;-68
2022/08/01 01:18:08;;;;;;;0.82;0.60;;;23.60;89.50;;;;;;5036490;28;45422;-68
2022/08/01 01:20:38;;;;;;;0.80;0.60;;;23.60;89.50;;;;;;5026084;27;45258;-67
2022/08/01 01:23:25;;;;;;;0.60;0.52;;;23.60;89.40;;;;;;5036432;28;47540;-68
2022/08/01 01:26:10;;;;;;;0.65;0.63;;;23.60;89.50;;;;;;5031216;27;45325;-67
2022/08/01 01:29:01;;;;;;;0.57;0.55;;;23.60;89.40;;;;;;5030220;28;45533;-67
2022/08/01 01:31:29;;;;;;;1.00;0.63;;;23.60;89.40;;;;;;5040022;28;45198;-67
2022/08/01 01:33:59;;;;;;;0.52;0.50;;;23.60;89.50;;;;;;5039873;28;45334;-68
2022/08/01 01:36:28;;;;;;;1.02;0.75;;;23.60;89.40;;;;;;5037767;28;45324;-67
2022/08/01 01:38:56;;;;;;;0.73;0.55;;;23.60;89.40;;;;;;5040217;28;45316;-67
2022/08/01 01:41:24;;;;;;;0.50;0.50;;;23.60;89.40;;;;;;5039018;28;45277;-67
2022/08/01 01:43:52;;;;;;;1.90;0.85;;;23.60;89.40;;;;;;5039608;27;47350;-67
2022/08/01 01:46:26;;;;;;;0.88;0.68;;;23.60;89.50;;;;;;5039015;28;45353;-68
2022/08/01 01:48:56;;;;;;;0.75;0.55;;;23.60;89.40;;;;;;5039255;28;45433;-67
2022/08/01 01:51:25;;;;;;;0.55;0.55;;;23.60;89.50;;;;;;5039764;28;45332;-67
2022/08/01 01:53:54;;;;;;;0.98;0.70;;;23.60;89.40;;;;;;5039717;28;46375;-67
2022/08/01 01:56:22;;;;;;;0.80;0.70;;;23.60;89.50;;;;;;5037896;27;45457;-67
2022/08/01 01:58:53;;;;;;;0.60;0.60;;;23.50;89.40;;;;;;5039568;28;45346;-68
2022/08/01 02:01:24;;;;;;;0.50;0.50;;;23.60;89.50;;;;;;5039192;28;45461;-67
2022/08/01 02:03:53;;;;;;;0.65;0.50;;;23.60;89.50;;;;;;5038524;28;45365;-67
2022/08/01 02:06:21;;;;;;;0.50;0.50;;;23.60;89.50;;;;;;5038973;27;45328;-67
2022/08/01 02:08:48;;;;;;;0.65;0.65;;;23.60;89.40;;;;;;5039538;28;45471;-67
2022/08/01 02:11:21;;;;;;;0.55;0.55;;;23.60;89.60;;;;;;5038180;28;45414;-68
2022/08/01 02:13:54;;;;;;;0.60;0.50;;;23.60;89.70;;;;;;5039555;28;47269;-67
2022/08/01 02:16:23;;;;;;;0.60;0.60;;;23.60;89.80;;;;;;5038639;28;45303;-67
2022/08/01 02:18:50;;;;;;;0.57;0.55;;;23.60;89.90;;;;;;5039232;28;45381;-67
2022/08/01 02:21:24;;;;;;;1.00;0.70;;;23.60;90.00;;;;;;5023978;28;45581;-67
2022/08/01 02:23:52;;;;;;;0.60;0.60;;;23.60;90.00;;;;;;5040167;28;47732;-67
2022/08/01 02:26:20;;;;;;;0.50;0.50;;;23.60;90.00;;;;;;5037933;28;45446;-67
2022/08/01 02:28:50;;;;;;;0.70;0.52;;;23.60;90.00;;;;;;5038712;28;45436;-68
2022/08/01 02:31:22;;;;;;;0.60;0.60;;;23.60;90.00;;;;;;5038498;27;45417;-67
2022/08/01 02:33:58;;;;;;;0.52;0.52;;;23.60;90.00;;;;;;5038097;28;48464;-67
2022/08/01 02:36:28;;;;;;;0.60;0.60;;;23.60;90.00;;;;;;5036895;28;46436;-67
2022/08/01 02:38:57;;;;;;;0.68;0.55;;;23.60;90.00;;;;;;5038072;28;45334;-68
2022/08/01 02:41:27;;;;;;;0.75;0.73;;;23.60;90.00;;;;;;5037779;27;45466;-67
2022/08/01 02:43:59;;;;;;;0.73;0.73;;;23.60;90.00;;;;;;5032162;28;48855;-68
2022/08/01 02:46:30;;;;;;;0.52;0.52;;;23.60;90.00;;;;;;5036865;28;45888;-68
2022/08/01 02:49:01;;;;;;;1.92;0.60;;;23.60;90.00;;;;;;5039483;27;45398;-67
2022/08/01 02:51:30;;;;;;;0.70;0.70;;;23.60;90.00;;;;;;5039228;28;45352;-68
2022/08/01 02:53:59;;;;;;;0.90;0.90;;;23.60;90.00;;;;;;5038907;28;46329;-68
2022/08/01 02:56:34;;;;;;;0.90;0.73;;;23.60;90.00;;;;;;5037875;28;45292;-67
2022/08/01 02:59:03;;;;;;;0.93;0.70;;;23.60;90.00;;;;;;5038780;27;45430;-69
2022/08/01 03:01:31;;;;;;;0.55;0.55;;;23.60;90.00;;;;;;5039122;27;45407;-67
2022/08/01 03:04:00;;;;;;;1.10;0.80;;;23.60;90.00;;;;;;5039118;28;46567;-67
2022/08/01 03:06:28;;;;;;;1.40;0.70;;;23.60;90.00;;;;;;5038637;28;45267;-68
2022/08/01 03:08:56;;;;;;;0.68;0.68;;;23.60;90.00;;;;;;5031173;28;45481;-68
2022/08/01 03:11:24;;;;;;;0.52;0.52;;;23.60;90.00;;;;;;5036340;28;45685;-67
2022/08/01 03:13:53;;;;;;;0.80;0.80;;;23.60;90.00;;;;;;5038533;28;48265;-67
2022/08/01 03:16:21;;;;;;;0.70;0.70;;;23.60;90.00;;;;;;5038339;28;45365;-68
2022/08/01 03:18:50;;;;;;;0.95;0.68;;;23.60;90.00;;;;;;5038891;27;45528;-68
2022/08/01 03:21:20;;;;;;;0.70;0.70;;;23.60;90.00;;;;;;5036661;28;45226;-68
2022/08/01 03:23:50;;;;;;;0.60;0.60;;;23.60;90.00;;;;;;5038395;28;47435;-68
2022/08/01 03:26:18;;;;;;;0.93;0.90;;;23.60;90.00;;;;;;5037542;28;45368;-68
2022/08/01 03:28:47;;;;;;;0.60;0.60;;;23.60;90.00;;;;;;5038206;28;45504;-68
2022/08/01 03:31:15;;;;;;;0.70;0.70;;;23.60;90.00;;;;;;5037811;28;45266;-67
2022/08/01 03:33:41;;;;;;;0.80;0.80;;;23.60;90.00;;;;;;5038664;28;45354;-67
2022/08/01 03:36:11;;;;;;;0.70;0.70;;;23.60;90.00;;;;;;5046301;28;45828;-68
2022/08/01 03:38:41;;;;;;;0.77;0.77;;;23.60;90.00;;;;;;5043053;28;45326;-67
2022/08/01 03:41:12;;;;;;;1.08;0.90;;;23.60;90.00;;;;;;5043952;28;45412;-68
2022/08/01 03:43:43;;;;;;;1.10;0.90;;;23.60;90.00;;;;;;5038147;27;45450;-68
2022/08/01 03:46:14;;;;;;;0.80;0.80;;;23.60;90.00;;;;;;5037587;28;45347;-67
2022/08/01 03:48:48;;;;;;;1.17;0.90;;;23.60;90.10;;;;;;5037165;28;45620;-68
2022/08/01 03:51:15;;;;;;;0.82;0.82;;;23.60;90.00;;;;;;5035846;28;45483;-68
2022/08/01 03:53:45;;;;;;;1.08;0.98;;;23.60;90.00;;;;;;5037897;28;45327;-68
2022/08/01 03:56:14;;;;;;;0.85;0.82;;;23.60;90.00;;;;;;5037419;28;45490;-67
2022/08/01 03:58:43;;;;;;;0.90;0.90;;;23.60;90.10;;;;;;5037779;28;45419;-67
2022/08/01 04:01:11;;;;;;;1.25;0.88;;;23.60;90.00;;;;;;5034056;27;45400;-68
2022/08/01 04:03:38;;;;;;;1.10;1.00;;;23.60;90.00;;;;;;5036454;27;47504;-67
2022/08/01 04:06:07;;;;;;;1.05;0.90;;;23.60;90.10;;;;;;5037251;28;45433;-67
2022/08/01 04:08:37;;;;;;;1.25;1.00;;;23.60;90.10;;;;;;5045320;28;45290;-68
2022/08/01 04:11:05;;;;;;;1.27;1.00;;;23.60;90.10;;;;;;5037687;28;45554;-67
2022/08/01 04:13:33;;;;;;;1.20;1.10;;;23.60;90.10;;;;;;5037760;28;46568;-68
2022/08/01 04:16:00;;;;;;;1.30;1.20;;;23.60;90.10;;;;;;5037328;27;45308;-67
2022/08/01 04:18:27;;;;;;;1.15;1.00;;;23.60;90.10;;;;;;5037532;28;45366;-67
2022/08/01 04:20:53;;;;;;;1.42;1.10;;;23.60;90.10;;;;;;5037735;28;45273;-67
2022/08/01 04:23:25;;;;;;;0.90;0.90;;;23.60;90.10;;;;;;5037001;27;46628;-68
2022/08/01 04:25:53;;;;;;;1.75;1.23;;;23.60;90.10;;;;;;5048187;27;45380;-68
2022/08/01 04:28:23;;;;;;;1.10;1.00;;;23.60;90.10;;;;;;5036088;28;45488;-68
2022/08/01 04:30:52;;;;;;;1.90;1.30;;;23.60;90.10;;;;;;5038162;27;45481;-67
2022/08/01 04:33:21;;;;;;;1.27;1.02;;;23.60;90.10;;;;;;5036954;28;47529;-67
2022/08/01 04:35:50;;;;;;;1.25;1.02;;;23.60;90.10;;;;;;5038045;27;45426;-67
2022/08/01 04:38:20;;;;;;;1.35;1.20;;;23.60;90.10;;;;;;5036600;28;45764;-67
2022/08/01 04:40:50;;;;;;;1.10;1.00;;;23.60;90.10;;;;;;5036969;28;45308;-67
2022/08/01 04:43:18;;;;;;;1.60;1.15;;;23.60;90.10;;;;;;5035427;27;46260;-67
2022/08/01 04:45:48;;;;;;;2.28;1.70;;;23.60;90.10;;;;;;5036091;27;45345;-68
2022/08/01 04:48:19;;;;;;;1.95;1.58;;;23.60;90.10;;;;;;5033015;28;45558;-67
2022/08/01 04:50:46;;;;;;;3.45;1.80;;;23.60;90.00;;;;;;5038326;28;45409;-68
2022/08/01 04:53:16;;;;;;;1.50;1.40;;;23.60;90.10;;;;;;5045073;27;48154;-67
2022/08/01 04:55:43;;;;;;;2.13;1.80;;;23.60;90.10;;;;;;5031809;28;45829;-68
2022/08/01 04:58:11;;;;;;;1.70;1.60;;;23.60;90.10;;;;;;5038708;27;45242;-69
2022/08/01 05:00:37;;;;;;;2.00;1.65;;;23.60;90.20;;;;;;5031466;28;45576;-70
2022/08/01 05:03:05;;;;;;;2.20;2.00;;;23.60;90.20;;;;;;5043161;27;48126;-69
2022/08/01 05:05:33;;;;;;;1.98;1.70;;;23.60;90.10;;;;;;5031509;28;45477;-68
2022/08/01 05:08:00;;;;;;;1.73;1.63;;;23.60;90.20;;;;;;5043445;28;45604;-69
2022/08/01 05:10:27;;;;;;;1.83;1.60;;;23.60;90.70;;;;;;5039670;28;45503;-68
2022/08/01 05:12:54;;;;;;;2.97;2.00;;;23.60;91.20;;;;;;5040048;28;48157;-68
2022/08/01 05:15:22;;;;;;;2.10;1.90;;;23.60;91.40;;;;;;5038082;27;45478;-68
2022/08/01 05:17:48;;;;;;;2.80;2.05;;;23.60;91.60;;;;;;5040331;27;45476;-68
2022/08/01 05:20:16;;;;;;;2.47;1.60;;;23.60;91.50;;;;;;5038815;28;45316;-70
2022/08/01 05:22:43;;;;;;;2.35;2.03;;;23.60;91.30;;;;;;5040241;28;47355;-68
2022/08/01 05:25:10;;;;;;;2.85;2.45;;;23.60;91.20;;;;;;5047175;28;45378;-69
2022/08/01 05:27:39;;;;;;;2.25;2.03;;;23.60;91.10;;;;;;5039863;28;45331;-68
2022/08/01 05:30:07;;;;;;;2.78;2.13;;;23.60;91.00;;;;;;5037629;27;45464;-69
2022/08/01 05:32:34;;;;;;;3.38;2.70;;;23.60;91.10;;;;;;5042454;28;48196;-68
2022/08/01 05:35:01;;;;;;;2.72;2.03;;;23.60;91.10;;;;;;5044792;28;45576;-69
2022/08/01 05:37:30;;;;;;;2.80;2.10;;;23.60;91.10;;;;;;5061196;28;45422;-68
2022/08/01 05:39:57;;;;;;;2.13;1.92;;;23.60;91.00;;;;;;5067006;27;45312;-68
2022/08/01 05:42:23;;;;;;;2.28;2.08;;;23.60;91.00;;;;;;5049624;28;46375;-68
2022/08/01 05:44:50;;;;;;;2.28;1.95;;;23.60;90.90;;;;;;5069569;27;45337;-69
2022/08/01 05:47:17;;;;;;;2.70;1.80;;;23.60;90.90;;;;;;5069022;27;45462;-68
2022/08/01 05:49:44;;;;;;;4.00;1.98;;;23.60;91.00;;;;;;5061647;27;45366;-68
2022/08/01 05:52:11;;;;;;;1.75;1.65;;;23.60;90.90;;;;;;5076182;27;46521;-68
2022/08/01 05:54:39;;;;;;;1.60;1.50;;;23.60;90.80;;;;;;5050160;28;45328;-68
2022/08/01 05:57:06;;;;;;;2.00;1.80;;;23.60;90.80;;;;;;5041374;28;45296;-69
2022/08/01 05:59:34;;;;;;;1.98;1.77;;;23.60;90.70;;;;;;5032783;27;45426;-69
2022/08/01 06:02:01;;;;;;;2.05;1.63;;;23.60;90.70;;;;;;5038887;28;47546;-68
2022/08/01 06:04:27;;;;;;;2.22;1.67;;;23.70;90.70;;;;;;5039908;28;45568;-69
2022/08/01 06:06:54;;;;;;;2.45;1.90;;;23.70;90.60;;;;;;5051155;28;45449;-68
2022/08/01 06:09:21;;;;;;;2.35;2.00;;;23.70;90.70;;;;;;5055796;28;45357;-68
2022/08/01 06:11:49;;;;;;;3.80;2.00;;;23.70;90.60;;;;;;5053356;28;47584;-68
2022/08/01 06:14:16;;;;;;;3.15;2.55;;;23.70;90.50;;;;;;5051449;28;45404;-68
2022/08/01 06:16:43;;;;;;;2.20;1.90;;;23.70;90.50;;;;;;5047035;28;45523;-69
2022/08/01 06:19:10;;;;;;;4.28;2.05;;;23.70;90.50;;;;;;5040248;27;45580;-68
2022/08/01 06:21:36;;;;;;;3.75;2.15;;;23.70;90.50;;;;;;5039763;28;45385;-68
2022/08/01 06:24:04;;;;;;;2.50;2.30;;;23.70;90.50;;;;;;5051387;28;45352;-68
2022/08/01 06:26:31;;;;;;;2.20;2.00;;;23.70;90.40;;;;;;5040608;28;45380;-69
2022/08/01 06:28:59;;;;;;;4.40;2.38;;;23.70;90.40;;;;;;5041019;28;45302;-68
2022/08/01 06:31:26;;;;;;;2.67;2.30;;;23.70;90.40;;;;;;5040963;27;46289;-68
2022/08/01 06:33:52;;;;;;;2.47;2.28;;;23.70;90.40;;;;;;5040943;28;45357;-68
2022/08/01 06:36:19;;;;;;;3.85;2.38;;;23.70;90.50;;;;;;5041111;28;45459;-69
2022/08/01 06:38:46;;;;;;;2.35;2.05;;;23.70;90.40;;;;;;5046586;28;45508;-68
2022/08/01 06:41:13;;;;;;;3.00;2.30;;;23.70;90.40;;;;;;5057691;28;45323;-68
2022/08/01 06:43:40;;;;;;;3.28;2.38;;;23.70;90.50;;;;;;5055243;28;45392;-68
2022/08/01 06:46:08;;;;;;;2.97;2.28;;;23.70;90.40;;;;;;5049003;28;45544;-67
2022/08/01 06:48:39;;;;;;;3.13;2.08;;;23.70;90.50;;;;;;5053513;28;45339;-67
2022/08/01 06:51:15;;;;;;;2.58;2.38;;;23.70;90.40;;;;;;5041554;28;47056;-69
2022/08/01 06:53:42;;;;;;;3.58;2.33;;;23.70;90.40;;;;;;5046715;28;45947;-68
2022/08/01 06:56:09;;;;;;;2.88;2.13;;;23.70;90.80;;;;;;5040625;28;45277;-67
2022/08/01 06:58:36;;;;;;;2.15;1.90;;;23.70;90.40;;;;;;5040486;28;45303;-68
2022/08/01 07:01:05;;;;;;;2.55;2.33;;;23.70;90.30;;;;;;5039312;28;47141;-68
2022/08/01 07:03:33;;;;;;;2.22;1.98;;;23.70;90.30;;;;;;5052234;28;45277;-67
2022/08/01 07:06:00;;;;;;;4.07;2.60;;;23.70;90.40;;;;;;5044051;28;45357;-67
2022/08/01 07:08:27;;;;;;;2.60;2.40;;;23.70;90.30;;;;;;5043708;28;45454;-67
2022/08/01 07:10:54;;;;;;;2.67;2.17;;;23.70;90.40;;;;;;5061081;27;46572;-68
2022/08/01 07:13:24;;;;;;;3.35;2.40;;;23.70;90.30;;;;;;5060408;28;45297;-68
2022/08/01 07:15:51;;;;;;;2.40;1.95;;;23.70;90.40;;;;;;5052581;28;45343;-67
2022/08/01 07:18:18;;;;;;;2.42;2.00;;;23.70;90.50;;;;;;5050285;28;45359;-68
2022/08/01 07:20:46;;;;;;;4.53;2.50;;;23.70;90.50;;;;;;5033522;27;46320;-68
2022/08/01 07:23:13;;;;;;;3.08;2.38;;;23.70;90.50;;;;;;5057569;28;46606;-67
2022/08/01 07:25:40;;;;;;;4.43;2.33;;;23.70;90.50;;;;;;5048245;28;45486;-68
2022/08/01 07:28:07;;;;;;;2.40;2.13;;;23.70;90.50;;;;;;5050285;28;45419;-67
2022/08/01 07:30:34;;;;;;;2.45;2.03;;;23.70;90.40;;;;;;5047201;27;45490;-67
2022/08/01 07:33:01;;;;;;;2.40;2.20;;;23.70;90.40;;;;;;5044859;28;45271;-67
2022/08/01 07:35:28;;;;;;;3.00;2.20;;;23.70;90.40;;;;;;5051738;28;45281;-67
2022/08/01 07:37:56;;;;;;;2.25;1.85;;;23.70;90.30;;;;;;5058994;28;45562;-68
2022/08/01 07:40:23;;;;;;;2.75;2.25;;;23.70;90.30;;;;;;5057510;28;46340;-68
2022/08/01 07:42:49;;;;;;;3.35;2.38;;;23.70;90.30;;;;;;5056691;28;45915;-68
2022/08/01 07:45:16;;;;;;;3.15;2.10;;;23.70;90.30;;;;;;5047832;28;45397;-67
2022/08/01 07:47:43;;;;;;;2.97;2.10;;;23.70;90.30;;;;;;5060123;28;45422;-67
2022/08/01 07:50:12;;;;;;;2.88;2.00;;;23.70;90.30;;;;;;5036503;28;47578;-67
2022/08/01 07:52:39;;;;;;;2.97;2.00;;;23.70;90.30;;;;;;5036209;27;45390;-68
2022/08/01 07:55:09;;;;;;;2.33;2.00;;;23.70;90.30;;;;;;5036884;28;45345;-68
2022/08/01 07:57:36;;;;;;;2.97;2.35;;;23.60;90.20;;;;;;5035416;28;45405;-67
2022/08/01 08:00:04;;;;;;;2.05;1.85;;;23.70;90.20;;;;;;5035676;28;47501;-67
2022/08/01 08:02:31;;;;;;;2.47;1.92;;;23.70;90.20;;;;;;5039428;28;45404;-67
2022/08/01 08:04:57;;;;;;;2.58;1.98;;;23.70;90.20;;;;;;5037471;28;45360;-67
2022/08/01 08:07:24;;;;;;;2.28;2.05;;;23.60;90.10;;;;;;5036376;28;45344;-68
2022/08/01 08:09:51;;;;;;;1.90;1.70;;;23.70;90.10;;;;;;5038395;28;47391;-68
2022/08/01 08:12:19;;;;;;;2.33;1.92;;;23.70;90.10;;;;;;5043599;28;45590;-68
2022/08/01 08:14:46;;;;;;;2.28;1.83;;;23.70;90.10;;;;;;5039769;28;45463;-68
2022/08/01 08:17:13;;;;;;;1.98;1.77;;;23.70;90.10;;;;;;5043853;28;45338;-67
2022/08/01 08:19:40;;;;;;;2.00;1.80;;;23.70;90.10;;;;;;5035955;28;48078;-67
2022/08/01 08:22:07;;;;;;;2.33;1.90;;;23.70;90.10;;;;;;5035573;28;45434;-67
2022/08/01 08:24:35;;;;;;;2.25;1.60;;;23.70;90.00;;;;;;5037049;28;45490;-68
2022/08/01 08:27:02;;;;;;;2.22;1.80;;;23.70;90.10;;;;;;5037836;28;45521;-68
2022/08/01 08:29:32;;;;;;;2.42;1.83;;;23.70;90.00;;;;;;5035405;28;46276;-67
2022/08/01 08:31:59;;;;;;;1.60;1.50;;;23.70;90.00;;;;;;5037716;28;45403;-67
2022/08/01 08:34:27;;;;;;;2.60;1.67;;;23.70;90.00;;;;;;5036940;28;45434;-68
2022/08/01 08:36:56;;;;;;;2.00;1.80;;;23.70;89.80;;;;;;5037378;28;45638;-67
2022/08/01 08:39:23;;;;;;;1.70;1.60;;;23.70;89.90;;;;;;5034951;27;46581;-67
2022/08/01 08:41:50;;;;;;;2.05;1.63;;;23.70;89.90;;;;;;5036417;28;45926;-68
2022/08/01 08:44:19;;;;;;;1.45;1.35;;;23.70;90.00;;;;;;5036775;27;45438;-68
2022/08/01 08:46:50;;;;;;;1.85;1.55;;;23.70;90.00;;;;;;5038701;27;45643;-67
2022/08/01 08:49:21;;;;;;;1.92;1.60;;;23.70;89.80;;;;;;5035534;28;47677;-68
2022/08/01 08:51:49;;;;;;;2.10;1.80;;;23.70;89.70;;;;;;5037809;28;45316;-68
2022/08/01 08:54:17;;;;;;;1.58;1.40;;;23.70;89.70;;;;;;5036547;27;45467;-67
2022/08/01 08:56:46;;;;;;;3.17;2.00;;;23.70;89.70;;;;;;5039107;28;45313;-68
2022/08/01 08:59:14;;;;;;;2.22;1.63;;;23.70;89.70;;;;;;5033523;28;46178;-67
2022/08/01 09:01:41;;;;;;;2.17;1.70;;;23.70;89.60;;;;;;5029521;27;45507;-67
2022/08/01 09:04:10;;;;;;;1.73;1.63;;;23.70;89.60;;;;;;5021462;28;45381;-67
2022/08/01 09:06:37;;;;;;;1.95;1.73;;;23.70;89.70;;;;;;5026506;28;45508;-68
2022/08/01 09:09:06;;;;;;;1.50;1.40;;;23.70;89.80;;;;;;5042170;27;47581;-67
2022/08/01 09:11:33;;;;;;;2.40;1.73;;;23.70;89.80;;;;;;5030257;28;45448;-68
2022/08/01 09:14:05;;;;;;;2.75;1.50;;;23.70;89.90;;;;;;5036990;27;45455;-67
2022/08/01 09:16:32;;;;;;;1.67;1.58;;;23.70;89.80;;;;;;5030166;28;45445;-67
2022/08/01 09:19:12;;;;;;;1.75;1.40;;;23.70;89.60;;;;;;5034941;28;46617;-68
2022/08/01 09:21:39;;;;;;;1.77;1.67;;;23.70;89.60;;;;;;5028184;28;45523;-68
2022/08/01 09:24:17;;;;;;;2.90;1.65;;;23.70;89.60;;;;;;5031693;27;45475;-68
2022/08/01 09:26:44;;;;;;;1.95;1.60;;;23.70;89.60;;;;;;5035963;28;45418;-68
2022/08/01 09:29:20;;;;;;;2.80;1.80;;;23.70;89.60;;;;;;5033557;28;47410;-67
2022/08/01 09:31:47;;;;;;;1.75;1.40;;;23.70;89.40;;;;;;5036939;28;45453;-67
2022/08/01 09:34:17;;;;;;;1.65;1.38;;;23.70;89.40;;;;;;5035776;28;45564;-67
2022/08/01 09:36:52;;;;;;;2.00;1.70;;;23.70;89.30;;;;;;5036731;28;45325;-68
2022/08/01 09:39:20;;;;;;;2.03;1.83;;;23.70;89.10;;;;;;5032719;27;46220;-67
2022/08/01 09:41:47;;;;;;;1.98;1.60;;;23.70;89.10;;;;;;5036893;28;45431;-67
2022/08/01 09:44:17;;;;;;;2.35;1.70;;;23.70;89.00;;;;;;5035860;27;45301;-67
2022/08/01 09:46:52;;;;;;;2.03;1.40;;;23.70;89.00;;;;;;5037516;27;45885;-68
2022/08/01 09:49:30;;;;;;;1.73;1.48;;;23.70;89.20;;;;;;5034088;28;46593;-68
2022/08/01 09:51:58;;;;;;;1.83;1.67;;;23.70;89.30;;;;;;5040183;28;45404;-67
2022/08/01 09:54:32;;;;;;;1.50;1.38;;;23.70;89.20;;;;;;5033681;28;45291;-68
2022/08/01 09:57:14;;;;;;;3.45;1.70;;;23.70;89.00;;;;;;5038071;28;45427;-67
2022/08/01 09:59:43;;;;;;;1.45;1.35;;;23.70;88.90;;;;;;5031358;28;45351;-68
2022/08/01 10:02:13;;;;;;;2.90;1.40;;;23.70;88.90;;;;;;5035221;28;45264;-69
2022/08/01 10:04:47;;;;;;;1.95;1.73;;;23.70;88.80;;;;;;5034033;27;45461;-68
2022/08/01 10:07:15;;;;;;;1.60;1.50;;;23.70;88.60;;;;;;5036166;28;45558;-69
2022/08/01 10:09:43;;;;;;;2.08;1.48;;;23.70;88.40;;;;;;5037719;28;48678;-68
2022/08/01 10:12:11;;;;;;;1.42;1.33;;;23.70;88.40;;;;;;5034798;28;45354;-67
2022/08/01 10:14:40;;;;;;;1.63;1.23;;;23.70;88.30;;;;;;5036836;28;45413;-68
2022/08/01 10:17:10;;;;;;;1.88;1.75;;;23.70;88.40;;;;;;5037827;28;45441;-68
2022/08/01 10:19:38;;;;;;;1.38;1.20;;;23.70;88.20;;;;;;5035190;28;47419;-69
2022/08/01 10:22:09;;;;;;;1.20;1.10;;;23.70;88.20;;;;;;5030891;27;46350;-67
2022/08/01 10:24:38;;;;;;;1.40;1.30;;;23.70;88.20;;;;;;5049443;28;45302;-68
2022/08/01 10:27:07;;;;;;;1.90;1.48;;;23.70;88.20;;;;;;5042906;28;45550;-68
2022/08/01 10:29:41;;;;;;;2.50;1.40;;;23.70;88.30;;;;;;5034261;27;46425;-68
2022/08/01 10:32:09;;;;;;;1.67;1.33;;;23.70;88.10;;;;;;5022424;28;45287;-69
2022/08/01 10:34:36;;;;;;;1.23;1.13;;;23.70;87.50;;;;;;5038284;28;45550;-68
2022/08/01 10:37:03;;;;;;;1.70;1.40;;;23.80;87.70;;;;;;5036806;28;45405;-68
2022/08/01 10:39:33;;;;;;;1.63;1.45;;;23.80;87.40;;;;;;5035356;28;46093;-68
2022/08/01 10:42:00;;;;;;;1.40;1.30;;;23.80;87.30;;;;;;5037117;28;45474;-68
2022/08/01 10:44:29;;;;;;;1.17;1.08;;;23.80;87.30;;;;;;5037644;28;45381;-68
2022/08/01 10:47:08;;;;;;;1.38;1.15;;;23.80;87.10;;;;;;5038786;28;45332;-68
2022/08/01 10:49:41;;;;;;;1.27;1.17;;;23.80;87.10;;;;;;5037412;28;47020;-68
2022/08/01 10:52:08;;;;;;;1.23;1.10;;;23.80;87.10;;;;;;5037816;28;45319;-69
2022/08/01 10:54:41;;;;;;;1.30;1.20;;;23.80;87.10;;;;;;5038399;28;45489;-68
2022/08/01 10:57:08;;;;;;;1.45;1.30;;;23.80;87.30;;;;;;5036922;27;45315;-68
2022/08/01 10:59:39;;;;;;;1.20;1.10;;;23.80;87.40;;;;;;5037399;28;46321;-68
2022/08/01 11:02:06;;;;;;;1.40;1.30;;;23.80;87.40;;;;;;5034878;28;45815;-68
2022/08/01 11:04:42;;;;;;;1.45;1.35;;;23.80;87.40;;;;;;5030415;27;45421;-68
2022/08/01 11:07:19;;;;;;;1.52;1.42;;;23.80;87.50;;;;;;5054442;28;45478;-68
2022/08/01 11:10:00;;;;;;;1.05;1.00;;;23.80;87.60;;;;;;5046762;28;46564;-68
2022/08/01 11:12:39;;;;;;;1.10;1.00;;;23.80;87.70;;;;;;5028929;28;45415;-68
2022/08/01 11:15:27;;;;;;;1.02;0.95;;;23.80;87.60;;;;;;5027553;28;45306;-68
2022/08/01 11:17:54;;;;;;;1.05;0.95;;;23.80;87.40;;;;;;5019074;27;45549;-68
2022/08/01 11:20:22;;;;;;;1.20;1.10;;;23.80;87.30;;;;;;5030095;28;48309;-68
2022/08/01 11:23:17;;;;;;;0.90;0.90;;;23.80;87.40;;;;;;5037550;28;45351;-69
2022/08/01 11:26:21;;;;;;;1.02;0.95;;;23.80;87.20;;;;;;5039558;28;45375;-68
2022/08/01 11:29:16;;;;;;;1.33;1.13;;;23.80;87.00;;;;;;5043443;27;45390;-68
2022/08/01 11:31:43;;;;;;;1.30;1.20;;;23.80;86.90;;;;;;5038666;27;46986;-68
2022/08/01 11:34:11;;;;;;;1.10;1.00;;;23.80;86.70;;;;;;5035952;28;45533;-68
2022/08/01 11:36:38;;;;;;;1.23;1.10;;;23.80;86.70;;;;;;5050179;28;45283;-68
2022/08/01 11:39:16;;;;;;;1.20;1.10;;;23.80;86.60;;;;;;5038244;28;45366;-69
2022/08/01 11:41:45;;;;;;;1.10;1.00;;;23.80;86.60;;;;;;5034790;27;48125;-68
2022/08/01 11:44:16;;;;;;;1.02;0.95;;;23.80;86.80;;;;;;5039322;27;45505;-69
2022/08/01 11:46:47;;;;;;;1.30;0.90;;;23.80;86.80;;;;;;5035694;28;45293;-69
2022/08/01 11:49:28;;;;;;;0.82;0.82;;;23.80;86.70;;;;;;5034792;28;45420;-69
2022/08/01 11:52:02;;;;;;;1.10;1.00;;;23.80;86.60;;;;;;5034602;28;48041;-69
2022/08/01 11:54:30;;;;;;;0.80;0.80;;;23.80;86.50;;;;;;5036992;27;45542;-69
2022/08/01 11:56:58;;;;;;;1.00;0.90;;;23.80;86.50;;;;;;5035715;28;45264;-68
2022/08/01 11:59:27;;;;;;;1.00;0.90;;;23.80;86.40;;;;;;5032740;28;45526;-68
2022/08/01 12:01:54;;;;;;;0.70;0.70;;;23.90;86.40;;;;;;5038550;27;45462;-69
2022/08/01 12:04:21;;;;;;;2.33;0.90;;;23.80;86.10;;;;;;5036365;27;46138;-68
2022/08/01 12:06:48;;;;;;;1.73;1.33;;;23.90;86.10;;;;;;5038181;28;45387;-68
2022/08/01 12:09:19;;;;;;;0.80;0.80;;;23.80;85.90;;;;;;5037110;27;45593;-69
2022/08/01 12:11:46;;;;;;;0.80;0.80;;;23.80;85.70;;;;;;5036064;28;45643;-68
2022/08/01 12:14:20;;;;;;;0.75;0.75;;;23.80;85.60;;;;;;5036238;28;45586;-69
2022/08/01 12:16:54;;;;;;;0.80;0.70;;;23.80;85.50;;;;;;5043593;28;45317;-68
2022/08/01 12:19:22;;;;;;;0.93;0.85;;;23.90;85.30;;;;;;5037396;27;45357;-69
2022/08/01 12:22:09;;;;;;;0.68;0.63;;;23.90;85.20;;;;;;5039947;28;45412;-69
2022/08/01 12:24:36;;;;;;;0.73;0.73;;;23.90;84.90;;;;;;5038000;28;45292;-68
2022/08/01 12:27:04;;;;;;;1.30;0.75;;;23.90;84.90;;;;;;5039990;28;45404;-69
2022/08/01 12:29:35;;;;;;;1.30;0.60;;;23.90;84.70;;;;;;5036594;27;45447;-68
2022/08/01 12:32:04;;;;;;;0.77;0.77;;;23.90;84.70;;;;;;5036559;27;46170;-70
2022/08/01 12:34:33;;;;;;;0.63;0.60;;;23.90;84.70;;;;;;5033707;28;45298;-69
2022/08/01 12:37:01;;;;;;;1.00;0.65;;;23.90;84.70;;;;;;5030448;27;45493;-68
2022/08/01 12:39:33;;;;;;;1.20;0.90;;;23.90;84.60;;;;;;5036767;27;45272;-68
2022/08/01 12:42:00;;;;;;;0.82;0.70;;;23.90;84.50;;;;;;5035803;27;45506;-68
2022/08/01 12:44:29;;;;;;;0.80;0.60;;;23.90;84.30;;;;;;5037008;27;45521;-68
2022/08/01 12:46:56;;;;;;;0.75;0.75;;;23.90;84.20;;;;;;5036911;27;45294;-68
2022/08/01 12:49:24;;;;;;;0.63;0.63;;;23.90;84.10;;;;;;5034958;28;45325;-68
2022/08/01 12:51:52;;;;;;;0.80;0.70;;;23.80;84.00;;;;;;5034048;28;46408;-69
2022/08/01 12:54:19;;;;;;;0.82;0.70;;;23.90;84.00;;;;;;5035840;27;45499;-68
2022/08/01 12:56:46;;;;;;;0.77;0.63;;;23.90;84.20;;;;;;5037071;27;45339;-69
2022/08/01 12:59:24;;;;;;;0.88;0.70;;;23.80;83.80;;;;;;5035750;28;45577;-68